Time;durP1;ratioP1;P1;durP2;ratioP2;P2;SDS_P1;SDS_P2;PMS_P1;PMS_P2;Temp;Humidity;BMP_temperature;BMP_pressure;BME280_temperature;BME280_humidity;BME280_pressure;Samples;Min_cycle;Max_cycle;Signal;HPM_P1;HPM_P2
2021/04/22 00:01:07;;;;;;;1999.90;999.90;;;;;;;5.76;100.00;-18063.78;4960816;29;20596;-37
2021/04/22 00:03:53;;;;;;;1999.90;999.90;;;;;;;5.71;100.00;-18062.44;4960409;29;20451;-35
2021/04/22 00:06:40;;;;;;;1999.90;999.90;;;;;;;5.60;100.00;-18059.34;4960573;29;20598;-36
2021/04/22 00:09:25;;;;;;;1999.90;999.90;;;;;;;5.46;100.00;-18055.84;4960890;29;20459;-34
2021/04/22 00:12:11;;;;;;;1999.90;999.90;;;;;;;5.47;100.00;-18056.13;4960451;29;20501;-34
2021/04/22 00:14:57;;;;;;;1999.90;999.90;;;;;;;5.39;100.00;-18053.84;4960580;29;20451;-32
2021/04/22 00:17:45;;;;;;;1999.90;999.90;;;;;;;5.48;100.00;-18056.38;4960688;29;20451;-35
2021/04/22 00:20:35;;;;;;;1999.90;999.90;;;;;;;5.42;100.00;-18054.66;4960618;29;20511;-37
2021/04/22 00:23:22;;;;;;;1999.90;999.90;;;;;;;5.39;100.00;-18053.84;4960410;29;20451;-33
2021/04/22 00:26:07;;;;;;;1999.90;999.90;;;;;;;5.18;100.00;-18048.47;4960243;29;20507;-36
2021/04/22 00:28:54;;;;;;;1999.90;999.90;;;;;;;5.21;100.00;-18049.13;4960202;29;20838;-38
2021/04/22 00:31:40;;;;;;;1999.90;999.90;;;;;;;5.10;100.00;-18046.31;4960074;29;20502;-31
2021/04/22 00:34:29;;;;;;;1999.90;999.90;;;;;;;5.16;100.00;-18047.81;4960204;29;20804;-33
2021/04/22 00:37:15;;;;;;;1999.90;999.90;;;;;;;5.19;100.00;-18048.75;4959913;29;20451;-33
2021/04/22 00:40:07;;;;;;;1999.90;999.90;;;;;;;5.21;100.00;-18049.13;4960054;29;20451;-32
2021/04/22 00:42:55;;;;;;;1999.90;999.90;;;;;;;5.06;100.00;-18045.13;4960348;29;20596;-35
2021/04/22 00:45:42;;;;;;;1999.90;999.90;;;;;;;5.10;100.00;-18046.19;4959835;29;20454;-35
2021/04/22 00:48:31;;;;;;;1999.90;999.90;;;;;;;5.08;100.00;-18045.78;4960060;29;20521;-35
2021/04/22 00:51:18;;;;;;;1999.90;999.90;;;;;;;5.07;100.00;-18045.38;4959298;28;20487;-34
2021/04/22 00:54:06;;;;;;;1999.90;999.90;;;;;;;4.92;100.00;-18041.34;4960120;29;20451;-34
2021/04/22 00:56:57;;;;;;;1999.90;999.90;;;;;;;4.78;100.00;-18037.72;4959827;29;20455;-35
2021/04/22 00:59:42;;;;;;;1999.90;999.90;;;;;;;4.88;100.00;-18040.41;4959936;29;20693;-35
2021/04/22 01:02:28;;;;;;;1999.90;999.90;;;;;;;4.87;100.00;-18040.16;4960005;29;20734;-36
2021/04/22 01:05:19;;;;;;;1999.90;999.90;;;;;;;4.88;100.00;-18040.28;4959800;29;20542;-34
2021/04/22 01:08:05;;;;;;;1999.90;999.90;;;;;;;4.75;100.00;-18036.94;4959135;29;20950;-34
2021/04/22 01:10:52;;;;;;;1999.90;999.90;;;;;;;4.58;100.00;-18032.34;4958719;29;20451;-36
2021/04/22 01:13:38;;;;;;;1999.90;999.90;;;;;;;4.46;100.00;-18029.41;4959760;29;20675;-37
2021/04/22 01:16:24;;;;;;;1999.90;999.90;;;;;;;4.37;100.00;-18026.84;4959267;29;20455;-34
2021/04/22 01:19:13;;;;;;;1999.90;999.90;;;;;;;4.55;100.00;-18031.56;4959415;29;20561;-36
2021/04/22 01:21:59;;;;;;;1999.90;999.90;;;;;;;4.64;100.00;-18034.09;4959425;29;20984;-36
2021/04/22 01:24:45;;;;;;;1999.90;999.90;;;;;;;4.70;100.00;-18035.59;4959109;29;20447;-35
2021/04/22 01:27:31;;;;;;;1999.90;999.90;;;;;;;4.75;100.00;-18037.06;4959435;29;20467;-35
2021/04/22 01:30:22;;;;;;;1999.90;999.90;;;;;;;4.63;100.00;-18033.69;4959122;29;20451;-34
2021/04/22 01:33:10;;;;;;;1999.90;999.90;;;;;;;4.68;100.00;-18035.03;4958962;29;20504;-37
2021/04/22 01:35:59;;;;;;;1999.90;999.90;;;;;;;4.89;100.00;-18040.56;4959138;29;20731;-36
2021/04/22 01:38:46;;;;;;;1999.90;999.90;;;;;;;4.90;100.00;-18040.94;4959014;29;20497;-36
2021/04/22 01:41:32;;;;;;;1999.90;999.90;;;;;;;4.83;100.00;-18039.06;4959025;29;20467;-36
2021/04/22 01:44:18;;;;;;;1999.90;999.90;;;;;;;4.87;100.00;-18040.16;4959163;29;20463;-35
2021/04/22 01:47:04;;;;;;;1999.90;999.90;;;;;;;4.98;100.00;-18043.09;4958736;29;20452;-35
2021/04/22 01:49:50;;;;;;;1999.90;999.90;;;;;;;5.09;100.00;-18045.91;4959078;29;20516;-33
2021/04/22 01:52:36;;;;;;;1999.90;999.90;;;;;;;5.04;100.00;-18044.72;4958554;29;20531;-33
2021/04/22 01:55:28;;;;;;;1999.90;999.90;;;;;;;5.25;100.00;-18050.22;4958778;29;20451;-36
2021/04/22 01:58:18;;;;;;;1999.90;999.90;;;;;;;5.20;100.00;-18048.88;4958464;29;20514;-35
2021/04/22 02:01:04;;;;;;;1999.90;999.90;;;;;;;5.12;100.00;-18046.88;4958972;29;20443;-33
2021/04/22 02:03:50;;;;;;;1999.90;999.90;;;;;;;5.29;100.00;-18051.28;4958068;29;20455;-33
2021/04/22 02:06:36;;;;;;;1999.90;999.90;;;;;;;5.46;100.00;-18055.72;4958653;29;20451;-32
2021/04/22 02:09:22;;;;;;;1999.90;999.90;;;;;;;5.48;100.00;-18056.38;4958756;29;20459;-37
2021/04/22 02:12:09;;;;;;;1999.90;999.90;;;;;;;5.57;100.00;-18058.53;4958577;29;20486;-38
2021/04/22 02:14:58;;;;;;;1999.90;999.90;;;;;;;5.61;100.00;-18059.63;4958725;29;20452;-36
2021/04/22 02:17:44;;;;;;;1999.90;999.90;;;;;;;5.77;100.00;-18064.03;4958452;29;20451;-34
2021/04/22 02:20:31;;;;;;;1999.90;999.90;;;;;;;5.76;100.00;-18063.78;4958589;29;20451;-34
2021/04/22 02:23:19;;;;;;;1999.90;999.90;;;;;;;5.83;100.00;-18065.66;4958665;29;20447;-32
2021/04/22 02:26:05;;;;;;;1999.90;999.90;;;;;;;5.80;100.00;-18064.84;4958595;29;20444;-35
2021/04/22 02:28:52;;;;;;;1999.90;999.90;;;;;;;5.85;100.00;-18066.06;4958883;29;20451;-36
2021/04/22 02:31:37;;;;;;;1999.90;999.90;;;;;;;5.80;100.00;-18064.72;4958128;29;20909;-38
2021/04/22 02:34:23;;;;;;;1999.90;999.90;;;;;;;5.79;100.00;-18064.59;4958492;29;20442;-38
2021/04/22 02:37:09;;;;;;;1999.90;999.90;;;;;;;5.79;100.00;-18064.59;4958363;29;20450;-33
2021/04/22 02:39:55;;;;;;;1999.90;999.90;;;;;;;5.88;100.00;-18066.84;4958482;29;20462;-35
2021/04/22 02:42:41;;;;;;;1999.90;999.90;;;;;;;5.78;100.00;-18064.19;4958798;29;20563;-34
2021/04/22 02:45:30;;;;;;;1999.90;999.90;;;;;;;5.82;100.00;-18065.38;4958301;29;20568;-32
2021/04/22 02:48:16;;;;;;;1999.90;999.90;;;;;;;5.20;100.00;-18049.00;4958563;29;20807;-33
2021/04/22 02:51:04;;;;;;;1999.90;999.90;;;;;;;5.51;100.00;-18057.06;4958327;29;20447;-33
2021/04/22 02:53:49;;;;;;;1999.90;999.90;;;;;;;5.65;100.00;-18060.81;4957860;29;20679;-36
2021/04/22 02:56:35;;;;;;;1999.90;999.90;;;;;;;5.81;100.00;-18065.13;4958447;29;20466;-36
2021/04/22 02:59:22;;;;;;;1999.90;999.90;;;;;;;5.91;100.00;-18067.53;4958191;29;20451;-34
2021/04/22 03:02:09;;;;;;;1999.90;999.90;;;;;;;5.91;100.00;-18067.66;4958767;29;20439;-34
2021/04/22 03:04:55;;;;;;;1999.90;999.90;;;;;;;6.10;100.00;-18072.78;4958490;29;20451;-36
2021/04/22 03:07:41;;;;;;;1999.90;999.90;;;;;;;6.05;100.00;-18071.28;4958357;29;20451;-31
2021/04/22 03:10:28;;;;;;;1999.90;999.90;;;;;;;6.15;100.00;-18073.97;4958137;29;20448;-34
2021/04/22 03:13:14;;;;;;;1999.90;999.90;;;;;;;6.02;100.00;-18070.50;4958013;28;20485;-36
2021/04/22 03:15:59;;;;;;;1999.90;999.90;;;;;;;6.04;100.00;-18071.03;4961830;29;20599;-36
2021/04/22 03:18:47;;;;;;;1999.90;999.90;;;;;;;5.95;100.00;-18068.75;4961336;29;20874;-33
2021/04/22 03:21:33;;;;;;;1999.90;999.90;;;;;;;6.03;100.00;-18070.75;4961851;29;20538;-32
2021/04/22 03:24:19;;;;;;;1999.90;999.90;;;;;;;5.60;100.00;-18059.47;4961314;29;20447;-33
2021/04/22 03:27:07;;;;;;;1999.90;999.90;;;;;;;5.87;100.00;-18066.59;4961636;29;20451;-33
2021/04/22 03:29:52;;;;;;;1999.90;999.90;;;;;;;6.08;100.00;-18072.09;4961616;29;20452;-38
2021/04/22 03:32:42;;;;;;;1999.90;999.90;;;;;;;6.14;100.00;-18073.72;4961689;29;20506;-33
2021/04/22 03:35:29;;;;;;;1999.90;999.90;;;;;;;5.78;100.00;-18064.31;4961540;29;20476;-34
2021/04/22 03:38:15;;;;;;;1999.90;999.90;;;;;;;5.43;100.00;-18054.91;4961193;29;20207;-36
2021/04/22 03:41:01;;;;;;;1999.90;999.90;;;;;;;5.75;100.00;-18063.50;4961684;29;20215;-34
2021/04/22 03:43:47;;;;;;;1999.90;999.90;;;;;;;5.86;100.00;-18066.47;4960837;29;20531;-35
2021/04/22 03:46:33;;;;;;;1999.90;999.90;;;;;;;5.67;100.00;-18061.22;4961488;29;20611;-38
2021/04/22 03:49:18;;;;;;;1999.90;999.90;;;;;;;5.86;100.00;-18066.47;4960772;29;20247;-36
2021/04/22 03:52:07;;;;;;;1999.90;999.90;;;;;;;6.03;100.00;-18070.88;4961033;29;20490;-36
2021/04/22 03:54:56;;;;;;;1999.90;999.90;;;;;;;6.31;100.00;-18078.13;4961177;29;20204;-35
2021/04/22 03:57:52;;;;;;;1999.90;999.90;;;;;;;6.60;100.00;-18085.78;4961030;29;20247;-37
2021/04/22 04:00:41;;;;;;;1999.90;999.90;;;;;;;5.87;100.00;-18066.72;4960909;29;20447;-34
2021/04/22 04:03:26;;;;;;;1999.90;999.90;;;;;;;6.18;100.00;-18074.78;4960465;29;20199;-32
2021/04/22 04:06:12;;;;;;;1999.90;999.90;;;;;;;6.09;100.00;-18072.50;4960939;29;20467;-33
2021/04/22 04:08:59;;;;;;;1999.90;999.90;;;;;;;6.15;100.00;-18074.13;4960691;29;20364;-35
2021/04/22 04:11:46;;;;;;;1999.90;999.90;;;;;;;6.23;100.00;-18076.13;4960838;29;20231;-33
2021/04/22 04:14:32;;;;;;;1999.90;999.90;;;;;;;6.27;100.00;-18077.06;4960632;29;20208;-33
2021/04/22 04:17:18;;;;;;;1999.90;999.90;;;;;;;6.12;100.00;-18073.16;4960653;29;20267;-36
2021/04/22 04:20:06;;;;;;;1999.90;999.90;;;;;;;6.32;100.00;-18078.53;4960614;29;20518;-36
2021/04/22 04:22:52;;;;;;;1999.90;999.90;;;;;;;5.73;100.00;-18062.97;4960512;29;20204;-32
2021/04/22 04:25:38;;;;;;;1999.90;999.90;;;;;;;6.15;100.00;-18073.97;4959650;28;20697;-36
2021/04/22 04:28:24;;;;;;;1999.90;999.90;;;;;;;5.91;100.00;-18067.66;4958860;29;20549;-35
2021/04/22 04:31:10;;;;;;;1999.90;999.90;;;;;;;6.54;100.00;-18084.44;4960102;29;20203;-34
2021/04/22 04:33:58;;;;;;;1999.90;999.90;;;;;;;6.32;100.00;-18078.41;4960142;29;20283;-35
2021/04/22 04:36:46;;;;;;;1999.90;999.90;;;;;;;6.51;100.00;-18083.63;4959828;29;20723;-35
2021/04/22 04:39:32;;;;;;;1999.90;999.90;;;;;;;6.44;100.00;-18081.63;4959969;29;20267;-32
2021/04/22 04:42:19;;;;;;;1999.90;999.90;;;;;;;6.18;100.00;-18074.91;4960233;29;20203;-32
2021/04/22 04:45:12;;;;;;;1999.90;999.90;;;;;;;5.93;100.00;-18068.22;4960176;29;20197;-34
2021/04/22 04:47:58;;;;;;;1999.90;999.90;;;;;;;6.06;100.00;-18071.69;4959822;29;20500;-34
2021/04/22 04:50:43;;;;;;;1999.90;999.90;;;;;;;6.50;100.00;-18083.22;4959268;29;20204;-36
2021/04/22 04:53:30;;;;;;;1999.90;999.90;;;;;;;6.78;100.00;-18090.75;4959566;29;20236;-35
2021/04/22 04:56:17;;;;;;;1999.90;999.90;;;;;;;6.38;100.00;-18080.00;4959303;29;20215;-34
2021/04/22 04:59:04;;;;;;;1999.90;999.90;;;;;;;6.18;100.00;-18074.78;4958707;29;20657;-32
2021/04/22 05:01:53;;;;;;;1999.90;999.90;;;;;;;6.17;100.00;-18074.50;4959085;29;20610;-35
2021/04/22 05:04:39;;;;;;;1999.90;999.90;;;;;;;6.44;100.00;-18081.63;4958549;29;20268;-36
2021/04/22 05:07:24;;;;;;;1999.90;999.90;;;;;;;6.83;100.00;-18091.94;4959081;29;20306;-33
2021/04/22 05:10:12;;;;;;;1999.90;999.90;;;;;;;6.79;100.00;-18091.00;4959537;29;20208;-33
2021/04/22 05:12:57;;;;;;;1999.90;999.90;;;;;;;6.99;100.00;-18096.09;4958452;29;20649;-36
2021/04/22 05:15:44;;;;;;;1999.90;999.90;;;;;;;6.95;100.00;-18095.16;4959375;29;20199;-32
2021/04/22 05:18:31;;;;;;;1999.90;999.90;;;;;;;6.29;100.00;-18077.72;4959586;29;20199;-35
2021/04/22 05:21:17;;;;;;;1999.90;999.90;;;;;;;6.80;100.00;-18091.16;4958669;29;20208;-34
2021/04/22 05:24:04;;;;;;;1999.90;999.90;;;;;;;6.69;100.00;-18088.19;4958870;29;20199;-32
2021/04/22 05:26:49;;;;;;;1999.90;999.90;;;;;;;7.04;100.00;-18097.59;4958578;29;20299;-33
2021/04/22 05:29:35;;;;;;;1999.90;999.90;;;;;;;6.68;100.00;-18088.06;4958184;29;20203;-34
2021/04/22 05:32:22;;;;;;;1999.90;999.90;;;;;;;6.65;100.00;-18087.13;4957799;29;20228;-33
2021/04/22 05:35:10;;;;;;;1999.90;999.90;;;;;;;6.71;100.00;-18088.72;4957807;29;20203;-36
2021/04/22 05:38:08;;;;;;;1999.90;999.90;;;;;;;6.72;100.00;-18089.00;4957875;28;20283;-35
2021/04/22 05:40:54;;;;;;;1999.90;999.90;;;;;;;7.25;100.00;-18103.22;4957770;29;20299;-32
2021/04/22 05:43:40;;;;;;;1999.90;999.90;;;;;;;6.63;100.00;-18086.59;4957618;29;20206;-35
2021/04/22 05:46:26;;;;;;;1999.90;999.90;;;;;;;6.98;100.00;-18095.97;4957958;29;20500;-36
2021/04/22 05:49:14;;;;;;;1999.90;999.90;;;;;;;6.66;100.00;-18087.38;4958164;29;20199;-36
2021/04/22 05:52:01;;;;;;;1999.90;999.90;;;;;;;7.00;100.00;-18096.50;4958055;29;20262;-36
2021/04/22 05:54:46;;;;;;;1999.90;999.90;;;;;;;6.70;100.00;-18088.47;4958175;29;20259;-36
2021/04/22 05:57:37;;;;;;;1999.90;999.90;;;;;;;6.82;100.00;-18091.69;4956602;29;20290;-35
2021/04/22 06:00:24;;;;;;;1999.90;999.90;;;;;;;7.20;100.00;-18101.72;4957993;29;20204;-33
2021/04/22 06:03:13;;;;;;;1999.90;999.90;;;;;;;7.24;100.00;-18102.94;4957224;29;20351;-35
2021/04/22 06:06:00;;;;;;;1999.90;999.90;;;;;;;6.92;100.00;-18094.38;4957676;29;20203;-35
2021/04/22 06:08:46;;;;;;;1999.90;999.90;;;;;;;7.14;100.00;-18100.25;4957970;29;20203;-33
2021/04/22 06:11:33;;;;;;;1999.90;999.90;;;;;;;7.15;100.00;-18100.41;4958352;29;20204;-36
2021/04/22 06:14:19;;;;;;;1999.90;999.90;;;;;;;7.48;100.00;-18109.09;4957335;29;20295;-33
2021/04/22 06:17:05;;;;;;;1999.90;999.90;;;;;;;7.63;100.00;-18113.00;4957587;29;20212;-33
2021/04/22 06:19:51;;;;;;;1999.90;999.90;;;;;;;7.80;100.00;-18117.69;4956892;29;20455;-33
2021/04/22 06:22:37;;;;;;;1999.90;999.90;;;;;;;7.13;100.00;-18099.88;4957180;29;20203;-35
2021/04/22 06:25:23;;;;;;;1999.90;999.90;;;;;;;7.87;100.00;-18119.56;4957331;29;20352;-34
2021/04/22 06:28:12;;;;;;;1999.90;999.90;;;;;;;7.36;100.00;-18105.91;4956706;29;20587;-32
2021/04/22 06:30:58;;;;;;;1999.90;999.90;;;;;;;7.35;100.00;-18105.75;4957315;29;20224;-36
2021/04/22 06:33:49;;;;;;;1999.90;999.90;;;;;;;7.29;100.00;-18104.00;4957030;29;20355;-34
2021/04/22 06:36:35;;;;;;;1999.90;999.90;;;;;;;8.18;99.87;-18127.59;4956510;29;20207;-37
2021/04/22 06:39:24;;;;;;;1999.90;999.90;;;;;;;7.87;98.89;-18119.44;4957941;29;20351;-37
2021/04/22 06:42:11;;;;;;;1999.90;999.90;;;;;;;7.86;98.53;-18119.16;4956952;29;20212;-36
2021/04/22 06:45:09;;;;;;;1999.90;999.90;;;;;;;7.74;98.25;-18116.09;4957772;29;20260;-37
2021/04/22 06:48:02;;;;;;;1999.90;999.90;;;;;;;7.64;99.47;-18113.41;4957988;28;20207;-37
2021/04/22 06:50:51;;;;;;;1999.90;999.90;;;;;;;7.47;100.00;-18108.84;4957294;29;20610;-36
2021/04/22 06:53:37;;;;;;;1999.90;999.90;;;;;;;7.44;100.00;-18108.16;4950516;29;20450;-35
2021/04/22 06:56:24;;;;;;;1999.90;999.90;;;;;;;8.08;98.57;-18125.06;4961360;29;20275;-34
2021/04/22 06:59:14;;;;;;;1999.90;999.90;;;;;;;7.73;96.87;-18115.81;4961420;29;20239;-35
2021/04/22 07:02:02;;;;;;;1999.90;999.90;;;;;;;8.50;96.12;-18136.19;4960902;29;20302;-37
2021/04/22 07:04:48;;;;;;;1999.90;999.90;;;;;;;8.20;94.94;-18128.13;4960286;29;20204;-35
2021/04/22 07:07:35;;;;;;;1999.90;999.90;;;;;;;8.79;94.19;-18143.81;4960822;29;20730;-38
2021/04/22 07:10:21;;;;;;;1999.90;999.90;;;;;;;8.79;92.54;-18143.69;4960724;29;20204;-33
2021/04/22 07:13:08;;;;;;;1999.90;999.90;;;;;;;8.81;93.66;-18144.34;4960409;29;20221;-35
2021/04/22 07:15:54;;;;;;;1999.90;999.90;;;;;;;8.70;90.94;-18141.41;4960146;29;20201;-35
2021/04/22 07:18:46;;;;;;;1999.90;999.90;;;;;;;9.36;85.89;-18158.81;4960760;29;20417;-34
2021/04/22 07:21:32;;;;;;;1999.90;999.90;;;;;;;9.42;81.02;-18160.28;4960586;29;20208;-32
2021/04/22 07:24:18;;;;;;;1999.90;999.90;;;;;;;9.08;82.34;-18151.44;4960520;29;20200;-37
2021/04/22 07:27:06;;;;;;;1999.90;999.90;;;;;;;8.89;85.04;-18146.34;4960722;29;20677;-34
2021/04/22 07:29:52;;;;;;;1999.90;999.90;;;;;;;8.47;85.93;-18135.25;4960167;29;20208;-37
2021/04/22 07:32:39;;;;;;;1999.90;999.90;;;;;;;8.58;83.31;-18138.31;4960926;29;20239;-39
2021/04/22 07:35:29;;;;;;;1999.90;999.90;;;;;;;9.33;83.74;-18158.00;4960725;29;20206;-33
2021/04/22 07:38:17;;;;;;;1999.90;999.90;;;;;;;10.03;78.25;-18176.47;4960965;29;20214;-36
2021/04/22 07:41:03;;;;;;;1999.90;999.90;;;;;;;9.94;78.17;-18174.19;4960658;29;20295;-33
2021/04/22 07:43:49;;;;;;;1999.90;999.90;;;;;;;8.83;81.01;-18144.88;4959688;29;20211;-36
2021/04/22 07:46:38;;;;;;;1999.90;999.90;;;;;;;9.55;79.69;-18163.75;4960520;29;20307;-33
2021/04/22 07:49:24;;;;;;;1999.90;999.90;;;;;;;9.46;75.76;-18161.34;4960480;29;20270;-36
2021/04/22 07:52:17;;;;;;;1999.90;999.90;;;;;;;10.13;74.57;-18179.13;4960383;29;20594;-35
2021/04/22 07:55:05;;;;;;;1999.90;999.90;;;;;;;10.20;75.49;-18181.00;4959763;29;20377;-35
2021/04/22 07:57:51;;;;;;;1999.90;999.90;;;;;;;9.45;74.18;-18161.22;4959336;29;20232;-34
2021/04/22 08:00:38;;;;;;;1999.90;999.90;;;;;;;9.54;74.65;-18163.50;4958523;28;20522;-36
2021/04/22 08:03:24;;;;;;;1999.90;999.90;;;;;;;9.84;73.53;-18171.38;4959383;29;20614;-34
2021/04/22 08:06:16;;;;;;;1999.90;999.90;;;;;;;9.00;73.39;-18149.28;4959466;29;20267;-37
2021/04/22 08:09:03;;;;;;;1999.90;999.90;;;;;;;10.00;73.35;-18175.78;4959072;29;20221;-37
2021/04/22 08:11:50;;;;;;;1999.90;999.90;;;;;;;9.57;74.26;-18164.28;4960015;29;20552;-34
2021/04/22 08:14:36;;;;;;;1999.90;999.90;;;;;;;9.79;72.66;-18170.16;4960199;29;20602;-34
2021/04/22 08:17:23;;;;;;;1999.90;999.90;;;;;;;10.19;71.49;-18180.75;4960188;29;20207;-37
2021/04/22 08:20:12;;;;;;;1999.90;999.90;;;;;;;9.89;71.25;-18172.84;4960495;29;20200;-38
2021/04/22 08:23:01;;;;;;;1999.90;999.90;;;;;;;9.78;70.87;-18169.78;4960235;29;20204;-38
2021/04/22 08:25:51;;;;;;;1999.90;999.90;;;;;;;9.73;71.57;-18168.44;4960686;29;20595;-34
2021/04/22 08:28:38;;;;;;;1999.90;999.90;;;;;;;9.61;73.92;-18165.50;4959574;29;20595;-37
2021/04/22 08:31:28;;;;;;;1999.90;999.90;;;;;;;10.86;68.31;-18198.25;4959760;29;20225;-36
2021/04/22 08:34:18;;;;;;;1999.90;999.90;;;;;;;9.61;71.44;-18165.34;4959004;29;20314;-34
2021/04/22 08:37:05;;;;;;;1999.90;999.90;;;;;;;9.88;69.02;-18172.44;4959687;29;20203;-36
2021/04/22 08:39:50;;;;;;;1999.90;999.90;;;;;;;9.53;69.94;-18163.34;4959761;29;20203;-37
2021/04/22 08:42:41;;;;;;;1999.90;999.90;;;;;;;11.36;66.52;-18211.63;4959476;29;20229;-34
2021/04/22 08:45:27;;;;;;;1999.90;999.90;;;;;;;12.93;57.62;-18252.75;4960073;29;20347;-37
2021/04/22 08:48:13;;;;;;;1999.90;999.90;;;;;;;10.95;63.45;-18200.81;4959534;29;20196;-34
2021/04/22 08:51:00;;;;;;;1999.90;999.90;;;;;;;10.90;65.76;-18199.47;4959858;29;20200;-36
2021/04/22 08:53:48;;;;;;;1999.90;999.90;;;;;;;10.38;66.58;-18185.69;4959420;29;20294;-36
2021/04/22 08:56:38;;;;;;;1999.90;999.90;;;;;;;10.37;70.09;-18185.44;4959785;29;20200;-36
2021/04/22 08:59:24;;;;;;;1999.90;999.90;;;;;;;10.54;68.72;-18189.97;4959140;29;20208;-36
2021/04/22 09:02:10;;;;;;;1999.90;999.90;;;;;;;10.26;69.83;-18182.63;4958677;29;20283;-38
2021/04/22 09:04:56;;;;;;;1999.90;999.90;;;;;;;10.54;68.29;-18189.84;4959379;29;20208;-37
2021/04/22 09:07:44;;;;;;;1999.90;999.90;;;;;;;11.52;62.48;-18215.63;4958968;29;20219;-36
2021/04/22 09:10:31;;;;;;;1999.90;999.90;;;;;;;12.28;58.75;-18235.66;4959501;29;20791;-33
2021/04/22 09:13:21;;;;;;;1999.90;999.90;;;;;;;14.21;48.76;-18286.38;4954114;29;20321;-38
2021/04/22 09:16:10;;;;;;;1999.90;999.90;;;;;;;12.88;49.99;-18251.56;4940229;29;20264;-37
2021/04/22 09:19:08;;;;;;;1999.90;999.90;;;;;;;10.93;60.97;-18200.28;4953650;29;20220;-37
2021/04/22 09:21:56;;;;;;;1999.90;999.90;;;;;;;10.45;65.32;-18187.56;4958914;29;20207;-37
2021/04/22 09:24:42;;;;;;;1999.90;999.90;;;;;;;10.76;66.06;-18195.59;4958287;29;20243;-36
2021/04/22 09:27:36;;;;;;;1999.90;999.90;;;;;;;11.48;63.74;-18214.56;4958962;29;20254;-37
2021/04/22 09:30:36;;;;;;;1999.90;999.90;;;;;;;11.00;64.17;-18202.00;4958650;29;20215;-34
2021/04/22 09:33:23;;;;;;;1999.90;999.90;;;;;;;10.54;66.04;-18189.84;4959481;29;20203;-36
2021/04/22 09:36:13;;;;;;;1999.90;999.90;;;;;;;12.34;58.73;-18237.41;4958968;29;20304;-36
2021/04/22 09:39:01;;;;;;;1999.90;999.90;;;;;;;12.84;58.79;-18250.50;4958990;29;20259;-36
2021/04/22 09:41:48;;;;;;;1999.90;999.90;;;;;;;12.76;53.96;-18248.50;4958940;29;20488;-33
2021/04/22 09:44:36;;;;;;;1999.90;999.90;;;;;;;13.27;56.23;-18261.69;4958241;29;20227;-34
2021/04/22 09:47:23;;;;;;;1999.90;999.90;;;;;;;13.65;55.18;-18271.69;4959014;29;20223;-37
2021/04/22 09:50:15;;;;;;;1999.90;999.90;;;;;;;14.72;49.71;-18299.84;4958719;29;20247;-37
2021/04/22 09:53:04;;;;;;;1999.90;999.90;;;;;;;13.52;52.89;-18268.25;4939198;29;20690;-38
2021/04/22 09:55:52;;;;;;;1999.90;999.90;;;;;;;13.52;52.77;-18268.25;4939524;29;20503;-35
2021/04/22 09:58:38;;;;;;;1999.90;999.90;;;;;;;13.44;52.09;-18266.38;4939480;29;20474;-39
2021/04/22 10:01:27;;;;;;;1999.90;999.90;;;;;;;12.77;54.62;-18248.63;4939922;29;20204;-35
2021/04/22 10:04:15;;;;;;;1999.90;999.90;;;;;;;12.81;56.75;-18249.69;4938727;29;20232;-37
2021/04/22 10:07:04;;;;;;;1999.90;999.90;;;;;;;14.42;50.60;-18292.09;4938082;29;20381;-35
2021/04/22 10:09:51;;;;;;;1999.90;999.90;;;;;;;14.96;48.05;-18306.09;4938970;29;20365;-39
2021/04/22 10:12:37;;;;;;;1999.90;999.90;;;;;;;14.22;47.79;-18286.75;4938204;29;20204;-37
2021/04/22 10:15:30;;;;;;;1999.90;999.90;;;;;;;13.23;49.52;-18260.75;4938865;29;20221;-38
2021/04/22 10:18:20;;;;;;;1999.90;999.90;;;;;;;13.02;53.91;-18255.16;4938854;29;20429;-34
2021/04/22 10:21:06;;;;;;;1999.90;999.90;;;;;;;15.02;48.38;-18307.69;4938637;29;20496;-37
2021/04/22 10:24:02;;;;;;;1999.90;999.90;;;;;;;14.83;49.43;-18302.91;4937030;29;20220;-34
2021/04/22 10:26:58;;;;;;;1999.90;999.90;;;;;;;15.11;50.12;-18310.22;4938524;29;20201;-37
2021/04/22 10:29:43;;;;;;;1999.90;999.90;;;;;;;12.06;57.53;-18230.06;4938933;29;20204;-34
2021/04/22 10:32:34;;;;;;;1999.90;999.90;;;;;;;11.29;64.69;-18209.75;4939037;29;20204;-35
2021/04/22 10:35:23;;;;;;;1999.90;999.90;;;;;;;10.87;65.09;-18198.53;4938598;29;20509;-41
2021/04/22 10:38:10;;;;;;;1999.90;999.90;;;;;;;11.64;63.26;-18218.84;4938574;29;20209;-42
2021/04/22 10:41:00;;;;;;;1999.90;999.90;;;;;;;12.83;60.19;-18250.22;4955238;29;20439;-40
2021/04/22 10:43:47;;;;;;;1999.90;999.90;;;;;;;13.87;52.72;-18277.56;4958047;29;20234;-42
2021/04/22 10:46:37;;;;;;;1999.90;999.90;;;;;;;12.90;59.14;-18252.09;4958059;29;20196;-42
2021/04/22 10:49:28;;;;;;;1999.90;999.90;;;;;;;12.47;61.95;-18240.75;4956822;29;20656;-43
2021/04/22 10:52:16;;;;;;;1999.90;999.90;;;;;;;13.43;54.02;-18266.09;4957738;29;20208;-43
2021/04/22 10:55:04;;;;;;;1999.90;999.90;;;;;;;12.62;58.08;-18244.63;4958145;29;20650;-42
2021/04/22 10:57:54;;;;;;;1999.90;999.90;;;;;;;13.16;56.34;-18258.78;4958518;29;20247;-41
2021/04/22 11:00:54;;;;;;;1999.90;999.90;;;;;;;11.90;57.48;-18225.78;4958749;29;20299;-43
2021/04/22 11:03:43;;;;;;;1999.90;999.90;;;;;;;13.06;60.01;-18256.22;4958005;29;20241;-42
2021/04/22 11:06:35;;;;;;;1999.90;999.90;;;;;;;13.65;56.04;-18271.69;4958366;29;20207;-43
2021/04/22 11:09:35;;;;;;;1999.90;999.90;;;;;;;13.23;53.86;-18260.75;4957596;29;20203;-42
2021/04/22 11:12:29;;;;;;;1999.90;999.90;;;;;;;12.93;57.00;-18252.88;4958114;29;20353;-42
2021/04/22 11:15:18;;;;;;;1999.90;999.90;;;;;;;13.92;52.43;-18278.91;4957650;29;20200;-42
2021/04/22 11:18:11;;;;;;;1999.90;999.90;;;;;;;14.30;47.72;-18288.78;4957585;29;20283;-42
2021/04/22 11:20:57;;;;;;;1999.90;999.90;;;;;;;15.43;50.40;-18318.59;4957332;29;20715;-43
2021/04/22 11:23:43;;;;;;;1999.90;999.90;;;;;;;13.59;50.09;-18270.09;4957855;29;20252;-44
2021/04/22 11:26:35;;;;;;;1999.90;999.90;;;;;;;13.43;52.83;-18265.97;4958391;29;20460;-52
2021/04/22 11:29:22;;;;;;;1999.90;999.90;;;;;;;12.21;53.33;-18233.81;4954207;29;20205;-42
2021/04/22 11:32:26;;;;;;;1999.90;999.90;;;;;;;13.46;53.42;-18266.78;4949167;29;20212;-42
2021/04/22 11:35:15;;;;;;;1999.90;999.90;;;;;;;12.51;58.04;-18241.81;4959598;28;20359;-42
2021/04/22 11:38:07;;;;;;;1999.90;999.90;;;;;;;12.17;57.76;-18232.75;4960845;29;20487;-43
2021/04/22 11:40:58;;;;;;;1999.90;999.90;;;;;;;12.37;54.46;-18238.22;4951004;29;20216;-42
2021/04/22 11:43:47;;;;;;;1999.90;999.90;;;;;;;13.97;52.04;-18280.25;4948176;29;20594;-44
2021/04/22 11:46:49;;;;;;;1999.90;999.90;;;;;;;13.17;52.40;-18259.16;4942289;29;20212;-44
2021/04/22 11:49:38;;;;;;;1999.90;999.90;;;;;;;12.97;53.87;-18253.81;4944902;29;20651;-44
2021/04/22 11:52:26;;;;;;;1999.90;999.90;;;;;;;12.63;56.06;-18245.00;4942101;29;20300;-43
2021/04/22 11:55:15;;;;;;;1999.90;999.90;;;;;;;13.25;50.83;-18261.31;4959447;29;20336;-43
2021/04/22 11:58:11;;;;;;;1999.90;999.90;;;;;;;12.41;52.66;-18239.13;4961032;29;20775;-43
2021/04/22 12:01:03;;;;;;;1999.90;999.90;;;;;;;11.68;55.61;-18219.91;4961153;29;20211;-43
2021/04/22 12:03:59;;;;;;;1999.90;999.90;;;;;;;12.96;53.22;-18253.56;4960809;29;20617;-44
2021/04/22 12:06:50;;;;;;;1999.90;999.90;;;;;;;13.39;52.50;-18265.03;4960682;29;20209;-43
2021/04/22 12:09:38;;;;;;;1999.90;999.90;;;;;;;13.78;51.95;-18275.16;4960016;29;20305;-43
2021/04/22 12:12:26;;;;;;;1999.90;999.90;;;;;;;13.93;52.73;-18279.16;4960806;29;20320;-43
2021/04/22 12:15:15;;;;;;;1999.90;999.90;;;;;;;14.45;49.05;-18292.78;4960639;29;20201;-43
2021/04/22 12:18:02;;;;;;;1999.90;999.90;;;;;;;13.91;52.15;-18278.50;4960556;29;20291;-43